Time;durP1;ratioP1;P1;durP2;ratioP2;P2;SDS_P1;SDS_P2;PMS_P1;PMS_P2;Temp;Humidity;BMP_temperature;BMP_pressure;BME280_temperature;BME280_humidity;BME280_pressure;Samples;Min_cycle;Max_cycle;Signal;HPM_P1;HPM_P2
2023/10/05 00:02:36;;;;;;;1999.90;999.90;;;;;;;13.54;100.00;102188.09;10655578;27;20085;-71
2023/10/05 00:07:39;;;;;;;1999.90;999.90;;;;;;;13.57;100.00;102200.25;10675626;27;20096;-71
2023/10/05 00:12:41;;;;;;;1999.90;999.90;;;;;;;13.56;100.00;102199.38;10674813;27;20042;-71
2023/10/05 00:17:46;;;;;;;1999.90;999.90;;;;;;;13.60;100.00;102199.25;10673339;27;20491;-71
2023/10/05 00:22:51;;;;;;;1999.90;999.90;;;;;;;13.59;100.00;102205.44;10675079;27;20043;-71
2023/10/05 00:27:55;;;;;;;1999.90;999.90;;;;;;;13.51;100.00;102206.66;10675386;27;20048;-72
2023/10/05 00:33:00;;;;;;;1999.90;999.90;;;;;;;13.51;100.00;102198.75;10674641;27;20047;-71
2023/10/05 00:38:12;;;;;;;1999.90;999.90;;;;;;;13.42;100.00;102206.25;10674371;27;20095;-72
2023/10/05 00:48:41;;;;;;;1999.90;999.90;;;;;;;13.57;100.00;102203.72;10673522;27;20078;-71
2023/10/05 00:53:46;;;;;;;1999.90;999.90;;;;;;;13.43;100.00;102207.94;10672162;27;20491;-71
2023/10/05 00:58:51;;;;;;;1999.90;999.90;;;;;;;13.31;100.00;102209.31;10672400;27;20126;-71
2023/10/05 01:14:52;;;;;;;1999.90;999.90;;;;;;;13.13;100.00;102206.63;10630375;27;20131;-71
2023/10/05 01:19:59;;;;;;;1999.90;999.90;;;;;;;12.96;100.00;102204.78;10671674;27;20050;-71
2023/10/05 01:25:04;;;;;;;1999.90;999.90;;;;;;;13.05;100.00;102190.34;10670841;27;20043;-71
2023/10/05 01:30:08;;;;;;;1999.90;999.90;;;;;;;13.14;100.00;102189.06;10670617;27;20454;-72
2023/10/05 01:35:15;;;;;;;1999.90;999.90;;;;;;;13.12;100.00;102191.78;10670945;27;20050;-72
2023/10/05 01:45:28;;;;;;;1999.90;999.90;;;;;;;12.87;100.00;102192.03;10654084;27;20050;-71
2023/10/05 01:50:33;;;;;;;1999.90;999.90;;;;;;;12.95;100.00;102191.69;10669574;27;20411;-72
2023/10/05 01:55:39;;;;;;;1999.90;999.90;;;;;;;13.00;100.00;102182.66;10670773;27;20125;-72
2023/10/05 02:00:41;;;;;;;1999.90;999.90;;;;;;;12.85;100.00;102186.00;10653197;27;20085;-72
2023/10/05 02:05:44;;;;;;;1999.90;999.90;;;;;;;12.89;100.00;102184.91;10652672;27;20126;-72
2023/10/05 02:10:48;;;;;;;1999.90;999.90;;;;;;;12.93;100.00;102177.78;10668903;27;20059;-71
2023/10/05 02:15:55;;;;;;;1999.90;999.90;;;;;;;12.81;100.00;102174.78;10669745;27;20485;-71
2023/10/05 02:21:06;;;;;;;1999.90;999.90;;;;;;;13.10;100.00;102169.97;10669233;27;20415;-72
2023/10/05 02:32:02;;;;;;;1999.90;999.90;;;;;;;13.02;100.00;102177.34;10525754;28;20044;-71
2023/10/05 02:37:06;;;;;;;1999.90;999.90;;;;;;;13.03;100.00;102165.91;10637141;27;20096;-72
2023/10/05 02:42:12;;;;;;;1999.90;999.90;;;;;;;13.01;100.00;102162.47;10668709;27;20095;-71
2023/10/05 02:47:16;;;;;;;1999.90;999.90;;;;;;;12.88;100.00;102166.59;10668059;27;20057;-71
2023/10/05 02:52:19;;;;;;;1999.90;999.90;;;;;;;12.87;100.00;102164.91;10668347;27;20505;-72
2023/10/05 02:57:22;;;;;;;1999.90;999.90;;;;;;;12.90;100.00;102160.34;10668846;27;20043;-71
2023/10/05 03:02:25;;;;;;;1999.90;999.90;;;;;;;12.78;100.00;102153.88;10666823;27;20475;-72
2023/10/05 03:07:27;;;;;;;1999.90;999.90;;;;;;;12.89;100.00;102161.25;10650302;27;20051;-71
2023/10/05 03:12:30;;;;;;;1999.90;999.90;;;;;;;13.07;100.00;102153.47;10666548;27;20047;-71
2023/10/05 03:17:33;;;;;;;1999.90;999.90;;;;;;;13.02;100.00;102157.16;10668155;27;20053;-71
2023/10/05 03:22:36;;;;;;;1999.90;999.90;;;;;;;13.02;100.00;102161.56;10666916;27;20062;-70
2023/10/05 03:27:39;;;;;;;1999.90;999.90;;;;;;;12.97;100.00;102164.41;10666046;27;20050;-71
2023/10/05 03:32:42;;;;;;;1999.90;999.90;;;;;;;13.00;100.00;102155.53;10667588;27;20042;-71
2023/10/05 03:37:45;;;;;;;1999.90;999.90;;;;;;;13.13;100.00;102156.66;10665708;27;20115;-71
2023/10/05 03:42:50;;;;;;;1999.90;999.90;;;;;;;12.99;100.00;102156.44;10667502;27;20049;-70
2023/10/05 03:47:53;;;;;;;1999.90;999.90;;;;;;;13.07;100.00;102154.31;10666036;27;20080;-71
2023/10/05 03:52:56;;;;;;;1999.90;999.90;;;;;;;12.95;100.00;102153.09;10666682;27;20043;-71
2023/10/05 03:57:58;;;;;;;1999.90;999.90;;;;;;;12.80;100.00;102157.28;10508692;22;20091;-63
2023/10/05 04:03:02;;;;;;;1999.90;999.90;;;;;;;12.88;100.00;102162.19;10455743;28;20458;-63
2023/10/05 04:08:11;;;;;;;1999.90;999.90;;;;;;;12.77;100.00;102167.94;10456250;28;20045;-64
2023/10/05 04:13:20;;;;;;;1999.90;999.90;;;;;;;12.78;100.00;102169.66;10456234;28;20048;-63
2023/10/05 04:18:24;;;;;;;1999.90;999.90;;;;;;;12.70;100.00;102170.91;10438944;28;20103;-63
2023/10/05 04:23:27;;;;;;;1999.90;999.90;;;;;;;12.58;100.00;102174.94;10455338;28;20543;-63
2023/10/05 04:28:40;;;;;;;1999.90;999.90;;;;;;;12.75;100.00;102172.41;10438194;28;20417;-64
2023/10/05 04:33:43;;;;;;;1999.90;999.90;;;;;;;12.45;100.00;102180.72;10422782;28;20140;-63
2023/10/05 04:38:46;;;;;;;1999.90;999.90;;;;;;;12.64;100.00;102182.53;10454992;28;20480;-64
2023/10/05 04:43:49;;;;;;;1999.90;999.90;;;;;;;12.64;100.00;102175.53;10455617;28;20128;-63
2023/10/05 04:49:10;;;;;;;1999.90;999.90;;;;;;;12.61;100.00;102175.66;10461581;28;20505;-64
2023/10/05 04:54:18;;;;;;;1999.90;999.90;;;;;;;12.62;100.00;102166.00;10462681;28;20080;-64
2023/10/05 04:59:25;;;;;;;1999.90;999.90;;;;;;;12.62;100.00;102172.13;10445535;28;20068;-64
2023/10/05 05:09:39;;;;;;;1999.90;999.90;;;;;;;12.78;100.00;102177.53;10462245;28;20393;-64
2023/10/05 05:14:42;;;;;;;1999.90;999.90;;;;;;;12.49;100.00;102175.31;10461607;28;20049;-64
2023/10/05 05:19:44;;;;;;;1999.90;999.90;;;;;;;12.60;100.00;102175.72;10444099;28;20078;-64
2023/10/05 05:24:48;;;;;;;1999.90;999.90;;;;;;;12.69;100.00;102182.34;10444176;28;20091;-64
2023/10/05 05:29:54;;;;;;;1999.90;999.90;;;;;;;12.58;100.00;102188.91;10461500;28;20053;-64
2023/10/05 05:34:56;;;;;;;1999.90;999.90;;;;;;;12.38;100.00;102191.56;10461346;28;20127;-64
2023/10/05 05:40:09;;;;;;;1999.90;999.90;;;;;;;12.56;100.00;102196.03;10460975;28;20063;-64
2023/10/05 05:45:21;;;;;;;1999.90;999.90;;;;;;;12.48;100.00;102210.41;10444785;28;20049;-64
2023/10/05 05:50:23;;;;;;;;;;;;;;;12.51;100.00;102199.75;10442968;28;20049;-63
2023/10/05 05:55:26;;;;;;;1999.90;999.90;;;;;;;12.65;100.00;102210.53;10460118;28;20007;-64
2023/10/05 06:00:28;;;;;;;1999.90;999.90;;;;;;;12.52;100.00;102211.97;10460295;28;20045;-64
2023/10/05 06:05:31;;;;;;;1999.90;999.90;;;;;;;12.50;100.00;102211.19;10460127;28;20131;-64
2023/10/05 06:10:35;;;;;;;1999.90;999.90;;;;;;;12.58;100.00;102217.81;10459925;28;20075;-64
2023/10/05 06:15:38;;;;;;;1999.90;999.90;;;;;;;12.62;100.00;102218.53;10459164;28;20083;-64
2023/10/05 06:20:40;;;;;;;1999.90;999.90;;;;;;;12.77;100.00;102230.16;10459449;28;20128;-69
2023/10/05 06:25:45;;;;;;;1999.90;999.90;;;;;;;12.73;100.00;102231.22;10441729;28;20064;-68
2023/10/05 06:30:52;;;;;;;1999.90;999.90;;;;;;;12.88;100.00;102221.78;10459110;28;20107;-69
2023/10/05 06:35:55;;;;;;;1999.90;999.90;;;;;;;12.97;100.00;102229.28;10442170;28;20135;-68
2023/10/05 06:40:57;;;;;;;1999.90;999.90;;;;;;;13.05;100.00;102226.31;10457966;28;20132;-68
2023/10/05 06:46:09;;;;;;;1999.90;999.90;;;;;;;12.81;100.00;102226.50;10423975;28;20049;-68
2023/10/05 06:51:13;;;;;;;1999.90;999.90;;;;;;;13.32;100.00;102219.81;10458335;28;20041;-68
2023/10/05 06:56:15;;;;;;;1999.90;999.90;;;;;;;13.21;100.00;102237.81;10457741;28;20057;-69
2023/10/05 07:01:20;;;;;;;1999.90;999.90;;;;;;;13.20;100.00;102252.75;10440214;28;20132;-68
2023/10/05 07:06:24;;;;;;;1999.90;999.90;;;;;;;13.27;100.00;102249.84;10440602;28;20114;-68
2023/10/05 07:11:27;;;;;;;1999.90;999.90;;;;;;;13.22;100.00;102260.59;10457199;28;20048;-68
2023/10/05 07:16:29;;;;;;;1999.90;999.90;;;;;;;13.32;100.00;102263.69;10439981;28;20136;-67
2023/10/05 07:21:33;;;;;;;1999.90;999.90;;;;;;;13.30;100.00;102273.41;10456588;28;20128;-68
2023/10/05 07:26:37;;;;;;;1999.90;999.90;;;;;;;13.55;100.00;102266.09;10455382;28;20084;-68
2023/10/05 07:31:39;;;;;;;1999.90;999.90;;;;;;;13.48;100.00;102277.84;10456392;28;20437;-68
2023/10/05 07:36:42;;;;;;;1999.90;999.90;;;;;;;13.71;100.00;102281.19;10456849;28;20049;-68
2023/10/05 07:41:46;;;;;;;1999.90;999.90;;;;;;;13.67;100.00;102293.63;10438904;28;20397;-67
2023/10/05 07:46:49;;;;;;;1999.90;999.90;;;;;;;13.84;100.00;102294.63;10456097;28;20580;-67
2023/10/05 07:51:51;;;;;;;1999.90;999.90;;;;;;;13.84;100.00;102305.16;10456626;28;20048;-67
2023/10/05 07:56:54;;;;;;;1999.90;999.90;;;;;;;13.82;100.00;102309.63;10456094;28;20064;-67
2023/10/05 08:01:57;;;;;;;1999.90;999.90;;;;;;;13.93;100.00;102318.72;10455683;28;20076;-68
2023/10/05 08:07:00;;;;;;;1999.90;999.90;;;;;;;14.25;100.00;102313.69;10422552;28;20056;-67
2023/10/05 08:12:02;;;;;;;1999.90;999.90;;;;;;;14.31;100.00;102323.94;10456267;28;20040;-68
2023/10/05 08:17:05;;;;;;;1999.90;999.90;;;;;;;14.58;100.00;102317.38;10438528;28;20052;-67
2023/10/05 08:22:09;;;;;;;1999.90;999.90;;;;;;;14.86;100.00;102325.63;10460300;28;20045;-68
2023/10/05 08:27:14;;;;;;;1999.90;999.90;;;;;;;15.11;100.00;102310.31;10446356;28;20057;-68
2023/10/05 08:32:16;;;;;;;1999.90;999.90;;;;;;;15.17;100.00;102329.28;10445884;28;20045;-67
2023/10/05 08:37:22;;;;;;;1999.90;999.90;;;;;;;15.38;100.00;102331.72;10445246;28;20481;-68
2023/10/05 08:42:26;;;;;;;1999.90;999.90;;;;;;;15.82;99.60;102335.56;10463383;28;20103;-68
2023/10/05 08:47:28;;;;;;;1999.90;999.90;;;;;;;15.93;98.85;102333.19;10462501;28;20128;-68
2023/10/05 08:52:35;;;;;;;1999.90;999.90;;;;;;;16.32;96.67;102327.44;10444470;28;20049;-68
2023/10/05 08:57:38;;;;;;;1999.90;999.90;;;;;;;16.28;93.57;102330.34;10444785;28;20061;-68
2023/10/05 09:02:40;;;;;;;1999.90;999.90;;;;;;;17.17;92.26;102333.06;10444798;28;20087;-68
2023/10/05 09:07:43;;;;;;;1999.90;999.90;;;;;;;16.44;94.34;102333.81;10461874;28;20470;-68
2023/10/05 09:12:58;;;;;;;1999.90;999.90;;;;;;;16.49;91.23;102349.41;10444531;28;20044;-68
2023/10/05 09:23:07;;;;;;;1999.90;999.90;;;;;;;16.46;93.62;102371.59;10444112;28;20103;-68
2023/10/05 09:28:14;;;;;;;1999.90;999.90;;;;;;;16.39;93.38;102377.31;10461038;28;20395;-68
2023/10/05 09:33:18;;;;;;;1999.90;999.90;;;;;;;16.54;nan;102392.28;10443983;28;20041;-68
2023/10/05 09:38:24;;;;;;;1999.90;999.90;;;;;;;16.39;93.44;102399.31;10443897;28;20053;-67
2023/10/05 09:43:28;;;;;;;1999.90;999.90;;;;;;;16.13;94.62;102408.69;10460994;28;20052;-67
2023/10/05 09:48:31;;;;;;;1999.90;999.90;;;;;;;16.20;96.00;102403.91;10442631;28;20409;-69
2023/10/05 09:53:35;;;;;;;1999.90;999.90;;;;;;;16.41;96.67;102391.28;10443006;28;20051;-68
2023/10/05 09:58:42;;;;;;;1999.90;999.90;;;;;;;16.61;93.57;102390.13;10442175;28;20132;-68
2023/10/05 10:03:45;;;;;;;1999.90;999.90;;;;;;;16.92;93.33;102383.94;10442503;28;20049;-68
2023/10/05 10:08:51;;;;;;;1999.90;999.90;;;;;;;16.86;93.38;102379.88;10442393;28;20053;-69
2023/10/05 10:14:05;;;;;;;1999.90;999.90;;;;;;;16.77;92.85;102368.97;10442240;28;20099;-69
2023/10/05 10:19:19;;;;;;;1999.90;999.90;;;;;;;17.01;91.19;102374.59;10443525;28;20049;-69
2023/10/05 10:24:28;;;;;;;1999.90;999.90;;;;;;;17.45;92.04;102381.69;10442280;28;20053;-69
2023/10/05 10:29:55;;;;;;;1999.90;999.90;;;;;;;17.49;88.89;102374.38;10458585;28;20087;-69
2023/10/05 10:35:13;;;;;;;1999.90;999.90;;;;;;;17.99;88.17;102383.66;10458390;28;20405;-69
2023/10/05 10:45:28;;;;;;;1999.90;999.90;;;;;;;18.16;85.12;102388.69;10457224;28;20059;-69
2023/10/05 10:50:31;;;;;;;1999.90;999.90;;;;;;;17.73;84.70;102387.91;10441577;28;20123;-68
2023/10/05 10:55:34;;;;;;;1999.90;999.90;;;;;;;18.08;85.40;102385.69;10440286;28;20057;-69
2023/10/05 11:01:04;;;;;;;1999.90;999.90;;;;;;;19.82;78.66;102373.97;10439980;28;20426;-69
2023/10/05 11:06:09;;;;;;;1999.90;999.90;;;;;;;18.41;81.12;102372.97;10441393;28;20453;-68
2023/10/05 11:11:19;;;;;;;1999.90;999.90;;;;;;;19.71;79.32;102373.88;10440465;28;20052;-68
2023/10/05 11:16:43;;;;;;;1999.90;999.90;;;;;;;19.79;76.46;102382.16;10456883;28;20449;-68
2023/10/05 11:21:46;;;;;;;1999.90;999.90;;;;;;;19.08;77.78;102373.81;10441170;28;20052;-69
2023/10/05 11:32:19;;;;;;;1999.90;999.90;;;;;;;20.35;74.14;102360.38;10456509;28;20513;-69
2023/10/05 11:37:45;;;;;;;1999.90;999.90;;;;;;;21.29;72.94;102363.06;10456920;28;20056;-69
2023/10/05 11:42:48;;;;;;;1999.90;999.90;;;;;;;20.45;73.65;102362.38;10456817;28;20056;-69
2023/10/05 11:47:54;;;;;;;1999.90;999.90;;;;;;;19.80;75.78;102367.06;10456759;28;20045;-69
2023/10/05 11:52:56;;;;;;;1999.90;999.90;;;;;;;20.19;74.34;102357.16;10456680;28;20076;-69
2023/10/05 11:58:01;;;;;;;1999.90;999.90;;;;;;;19.90;75.07;102362.78;10463694;28;20059;-69
2023/10/05 12:03:09;;;;;;;1999.90;999.90;;;;;;;19.65;75.88;102367.19;10447049;28;20401;-69
2023/10/05 12:08:12;;;;;;;1999.90;999.90;;;;;;;19.20;76.47;102365.94;10431544;28;20094;-69
2023/10/05 12:13:15;;;;;;;1999.90;999.90;;;;;;;18.61;81.79;102363.72;10463872;28;20052;-68
2023/10/05 12:18:18;;;;;;;1999.90;999.90;;;;;;;18.70;80.24;102355.16;10464313;28;20049;-69
2023/10/05 12:23:20;;;;;;;1999.90;999.90;;;;;;;20.07;75.88;102356.22;10464051;28;20045;-69
2023/10/05 12:28:23;;;;;;;1999.90;999.90;;;;;;;20.17;73.83;102361.72;10446370;28;20049;-68
2023/10/05 12:33:26;;;;;;;1999.90;999.90;;;;;;;18.91;77.40;102352.88;10463136;28;20429;-69
2023/10/05 12:38:28;;;;;;;1999.90;999.90;;;;;;;20.06;74.32;102362.53;10463570;28;20051;-69
2023/10/05 12:43:31;;;;;;;1999.90;999.90;;;;;;;18.76;77.22;102365.34;10444963;28;20049;-68
2023/10/05 12:48:33;;;;;;;1999.90;999.90;;;;;;;19.06;77.02;102359.81;10462562;28;20453;-69
2023/10/05 12:53:39;;;;;;;1999.90;999.90;;;;;;;18.66;78.80;102362.47;10445461;28;20087;-69
2023/10/05 12:58:41;;;;;;;1999.90;999.90;;;;;;;18.95;78.90;102365.00;10462097;28;20067;-69
2023/10/05 13:03:44;;;;;;;1999.90;999.90;;;;;;;18.84;78.08;102357.75;10444248;28;20486;-69
2023/10/05 13:08:48;;;;;;;1999.90;999.90;;;;;;;18.71;79.41;102364.78;10460998;28;20414;-68
2023/10/05 13:13:52;;;;;;;1999.90;999.90;;;;;;;18.73;78.16;102360.25;10461596;28;20405;-69
2023/10/05 13:18:55;;;;;;;1999.90;999.90;;;;;;;18.54;77.88;102371.22;10462115;28;20055;-69
2023/10/05 13:23:57;;;;;;;1999.90;999.90;;;;;;;18.31;78.24;102368.31;10461759;28;20084;-61
2023/10/05 13:29:07;;;;;;;1999.90;999.90;;;;;;;18.92;78.18;102374.00;10461279;28;20049;-67
2023/10/05 13:34:16;;;;;;;1999.90;999.90;;;;;;;18.19;76.73;102377.06;10460534;28;20049;-64
2023/10/05 13:39:21;;;;;;;1999.90;999.90;;;;;;;18.93;76.52;102369.56;10460987;28;20053;-64
2023/10/05 13:44:27;;;;;;;1999.90;999.90;;;;;;;18.86;75.91;102365.59;10460811;28;20044;-64
2023/10/05 13:49:32;;;;;;;1999.90;999.90;;;;;;;18.96;75.87;102358.72;10442583;28;20049;-64
2023/10/05 13:54:37;;;;;;;1999.90;999.90;;;;;;;18.38;77.26;102358.97;10442679;28;20488;-64
2023/10/05 13:59:39;;;;;;;1999.90;999.90;;;;;;;18.32;79.13;102361.19;10459695;28;20103;-64
2023/10/05 14:04:43;;;;;;;1999.90;999.90;;;;;;;18.35;80.30;102353.03;10459575;28;20414;-64
2023/10/05 14:09:47;;;;;;;1999.90;999.90;;;;;;;18.86;79.54;102347.91;10460056;28;20132;-64
2023/10/05 14:14:50;;;;;;;1999.90;999.90;;;;;;;20.50;73.40;102357.53;10459227;28;20049;-64
2023/10/05 14:19:54;;;;;;;1999.90;999.90;;;;;;;19.22;74.99;102350.78;10440439;28;20077;-65
2023/10/05 14:24:58;;;;;;;1999.90;999.90;;;;;;;18.94;77.32;102355.31;10458795;28;20464;-64
2023/10/05 14:30:06;;;;;;;1999.90;999.90;;;;;;;20.07;72.57;102353.56;10459222;28;20065;-65
2023/10/05 14:35:15;;;;;;;1999.90;999.90;;;;;;;21.25;66.83;102346.50;10441461;28;20056;-65
2023/10/05 14:40:26;;;;;;;1999.90;999.90;;;;;;;19.80;68.48;102352.00;10458858;28;20045;-65
2023/10/05 14:45:29;;;;;;;1999.90;999.90;;;;;;;21.80;62.19;102341.25;10458756;28;20060;-67
2023/10/05 14:50:32;;;;;;;1999.90;999.90;;;;;;;20.99;64.30;102348.50;10440886;28;20045;-71
2023/10/05 14:55:35;;;;;;;1999.90;999.90;;;;;;;19.68;72.56;102352.81;10458037;28;20061;-65
2023/10/05 15:00:37;;;;;;;1999.90;999.90;;;;;;;19.99;70.18;102343.53;10458070;28;20106;-65
2023/10/05 15:05:40;;;;;;;1999.90;999.90;;;;;;;21.23;65.18;102337.78;10457346;28;20433;-65
2023/10/05 15:10:43;;;;;;;1999.90;999.90;;;;;;;22.61;62.40;102347.06;10457263;28;20482;-67
2023/10/05 15:15:45;;;;;;;1999.90;999.90;;;;;;;27.70;48.31;102344.41;10457026;28;20486;-66
2023/10/05 15:20:50;;;;;;;1999.90;999.90;;;;;;;24.11;53.07;102348.28;10457417;28;20045;-65
2023/10/05 15:25:55;;;;;;;1999.90;999.90;;;;;;;24.94;53.46;102336.25;10439719;28;20059;-65
2023/10/05 15:30:58;;;;;;;1999.90;999.90;;;;;;;21.62;59.88;102338.25;10439012;28;20508;-66
2023/10/05 15:36:00;;;;;;;1999.90;999.90;;;;;;;19.77;68.38;102346.91;10456487;28;20490;-67
2023/10/05 15:41:03;;;;;;;1999.90;999.90;;;;;;;18.32;76.03;102337.31;10438640;28;20080;-68
2023/10/05 15:46:10;;;;;;;1999.90;999.90;;;;;;;18.43;75.01;102339.28;10456232;28;20486;-65
2023/10/05 15:51:12;;;;;;;1999.90;999.90;;;;;;;18.27;77.54;102345.56;10456156;28;20040;-66
2023/10/05 15:56:16;;;;;;;1999.90;999.90;;;;;;;17.61;84.32;102347.97;10455912;28;20524;-67
2023/10/05 16:01:20;;;;;;;1999.90;999.90;;;;;;;17.15;85.96;102345.53;10438834;28;20071;-67
2023/10/05 16:06:23;;;;;;;1999.90;999.90;;;;;;;16.91;90.09;102350.50;10455837;28;20509;-66
2023/10/05 16:11:25;;;;;;;1999.90;999.90;;;;;;;16.60;94.79;102357.56;10504711;22;20055;-67
2023/10/05 16:16:28;;;;;;;1999.90;999.90;;;;;;;16.41;98.80;102365.72;10538923;28;20048;-67
2023/10/05 16:21:31;;;;;;;1999.90;999.90;;;;;;;16.13;100.00;102372.53;10538717;28;20045;-66
2023/10/05 16:26:35;;;;;;;1999.90;999.90;;;;;;;15.99;100.00;102361.91;10538727;28;20469;-67
2023/10/05 16:31:39;;;;;;;1999.90;999.90;;;;;;;15.76;100.00;102364.00;10539204;28;20123;-67
2023/10/05 16:36:45;;;;;;;1999.90;999.90;;;;;;;15.63;100.00;102364.75;10520829;28;20067;-66
2023/10/05 16:41:48;;;;;;;1999.90;999.90;;;;;;;15.53;100.00;102372.28;10540464;28;20389;-66
2023/10/05 16:46:51;;;;;;;1999.90;999.90;;;;;;;15.35;100.00;102371.50;10528519;28;20054;-66
2023/10/05 16:51:53;;;;;;;1999.90;999.90;;;;;;;15.17;100.00;102374.16;10545773;28;20040;-67
2023/10/05 16:56:56;;;;;;;1999.90;999.90;;;;;;;15.06;100.00;102373.84;10545704;28;20489;-66
2023/10/05 17:01:59;;;;;;;1999.90;999.90;;;;;;;15.00;100.00;102379.44;10545990;28;20047;-66
2023/10/05 17:07:03;;;;;;;1999.90;999.90;;;;;;;14.83;100.00;102396.97;10545926;28;20055;-67
2023/10/05 17:12:05;;;;;;;1999.90;999.90;;;;;;;14.97;100.00;102398.06;10527171;28;20111;-67
2023/10/05 17:17:10;;;;;;;1999.90;999.90;;;;;;;14.61;100.00;102397.19;10545550;28;20055;-67
2023/10/05 17:22:12;;;;;;;1999.90;999.90;;;;;;;14.47;100.00;102392.56;10545235;28;20067;-67
2023/10/05 17:27:15;;;;;;;1999.90;999.90;;;;;;;14.52;100.00;102402.84;10545128;28;20066;-66
2023/10/05 17:32:18;;;;;;;1999.90;999.90;;;;;;;14.34;100.00;102412.53;10544269;28;20075;-67
2023/10/05 17:37:22;;;;;;;1999.90;999.90;;;;;;;14.17;100.00;102410.69;10526833;28;20052;-67
2023/10/05 17:42:25;;;;;;;1999.90;999.90;;;;;;;14.22;100.00;102407.81;10543733;28;20466;-67
2023/10/05 17:47:27;;;;;;;1999.90;999.90;;;;;;;14.17;100.00;102412.44;10544317;28;20052;-67
2023/10/05 17:52:31;;;;;;;1999.90;999.90;;;;;;;14.17;100.00;102413.31;10525303;28;20523;-67
2023/10/05 17:57:33;;;;;;;1999.90;999.90;;;;;;;14.23;100.00;102407.75;10543913;28;20101;-67
2023/10/05 18:02:36;;;;;;;1999.90;999.90;;;;;;;13.87;100.00;102410.28;10543646;28;20054;-66
2023/10/05 18:07:38;;;;;;;1999.90;999.90;;;;;;;13.71;100.00;102410.16;10543511;28;20048;-67
2023/10/05 18:12:41;;;;;;;1999.90;999.90;;;;;;;13.61;100.00;102407.06;10507937;28;20052;-67
2023/10/05 18:17:44;;;;;;;1999.90;999.90;;;;;;;13.58;100.00;102404.56;10542431;28;20409;-67
2023/10/05 18:22:47;;;;;;;1999.90;999.90;;;;;;;13.52;100.00;102418.84;10542179;28;20547;-67
2023/10/05 18:27:49;;;;;;;1999.90;999.90;;;;;;;13.35;100.00;102416.13;10542696;28;20131;-67
2023/10/05 18:32:52;;;;;;;1999.90;999.90;;;;;;;13.38;100.00;102410.69;10523909;28;20127;-67
2023/10/05 18:37:54;;;;;;;1999.90;999.90;;;;;;;13.38;100.00;102424.72;10542263;28;20094;-67
2023/10/05 18:42:57;;;;;;;1999.90;999.90;;;;;;;13.22;100.00;102435.94;10541378;28;20048;-67
2023/10/05 18:47:59;;;;;;;1999.90;999.90;;;;;;;13.14;100.00;102431.84;10523903;28;20048;-66
2023/10/05 18:53:02;;;;;;;1999.90;999.90;;;;;;;12.95;100.00;102439.66;10523726;28;20044;-66
2023/10/05 18:58:04;;;;;;;1999.90;999.90;;;;;;;12.91;100.00;102445.97;10523749;28;20058;-66
2023/10/05 19:03:06;;;;;;;1999.90;999.90;;;;;;;12.90;100.00;102433.72;10540907;28;20055;-66
2023/10/05 19:08:09;;;;;;;1999.90;999.90;;;;;;;12.78;100.00;102435.09;10540326;28;20131;-66
2023/10/05 19:13:11;;;;;;;1999.90;999.90;;;;;;;12.86;100.00;102442.69;10522567;28;20052;-67
2023/10/05 19:18:14;;;;;;;1999.90;999.90;;;;;;;12.83;100.00;102445.44;10540164;28;20496;-66
2023/10/05 19:23:16;;;;;;;1999.90;999.90;;;;;;;12.63;100.00;102449.69;10540118;28;20452;-66
2023/10/05 19:28:18;;;;;;;1999.90;999.90;;;;;;;13.20;100.00;102439.50;10522097;28;20048;-66
2023/10/05 19:33:21;;;;;;;1999.90;999.90;;;;;;;13.04;100.00;102435.78;10540323;28;20048;-66
2023/10/05 19:38:23;;;;;;;1999.90;999.90;;;;;;;12.88;100.00;102439.97;10539657;28;20583;-66
2023/10/05 19:43:26;;;;;;;1999.90;999.90;;;;;;;12.96;100.00;102441.38;10540040;28;20052;-66
2023/10/05 19:48:28;;;;;;;1999.90;999.90;;;;;;;12.99;100.00;102448.28;10539455;28;20052;-66
2023/10/05 19:53:30;;;;;;;1999.90;999.90;;;;;;;12.90;100.00;102443.41;10539899;28;20054;-73
2023/10/05 19:58:33;;;;;;;1999.90;999.90;;;;;;;13.15;100.00;102436.19;10539886;28;20050;-66
2023/10/05 20:03:35;;;;;;;1999.90;999.90;;;;;;;13.77;100.00;102441.47;10521744;28;20043;-66
2023/10/05 20:08:39;;;;;;;1999.90;999.90;;;;;;;13.81;100.00;102447.44;10539651;28;20048;-66
2023/10/05 20:13:41;;;;;;;1999.90;999.90;;;;;;;13.93;100.00;102439.84;10521037;28;20058;-66
2023/10/05 20:18:44;;;;;;;1999.90;999.90;;;;;;;14.00;100.00;102442.19;10528805;28;20055;-66
2023/10/05 20:23:46;;;;;;;1999.90;999.90;;;;;;;13.98;100.00;102439.63;10528933;28;20460;-66
2023/10/05 20:28:51;;;;;;;1999.90;999.90;;;;;;;14.08;100.00;102437.44;10547530;28;20062;-66
2023/10/05 20:33:55;;;;;;;1999.90;999.90;;;;;;;14.10;100.00;102448.75;10546590;28;20048;-66
2023/10/05 20:38:58;;;;;;;1999.90;999.90;;;;;;;13.79;100.00;102439.63;10546429;28;20412;-67
2023/10/05 20:44:00;;;;;;;1999.90;999.90;;;;;;;13.93;100.00;102438.97;10546120;28;20044;-66
2023/10/05 20:49:03;;;;;;;1999.90;999.90;;;;;;;13.73;100.00;102439.88;10528703;28;20055;-66
2023/10/05 20:54:06;;;;;;;1999.90;999.90;;;;;;;13.53;100.00;102446.03;10546466;28;20048;-66
2023/10/05 20:59:09;;;;;;;1999.90;999.90;;;;;;;13.47;100.00;102444.53;10545581;28;20059;-66
2023/10/05 21:04:11;;;;;;;1999.90;999.90;;;;;;;13.37;100.00;102440.59;10527360;28;20405;-66
2023/10/05 21:09:13;;;;;;;1999.90;999.90;;;;;;;13.34;100.00;102435.44;10545799;28;20054;-66
2023/10/05 21:14:16;;;;;;;1999.90;999.90;;;;;;;13.13;100.00;102437.16;10544954;28;20056;-66
2023/10/05 21:19:18;;;;;;;1999.90;999.90;;;;;;;13.58;100.00;102430.88;10527787;28;20086;-66
2023/10/05 21:24:21;;;;;;;1999.90;999.90;;;;;;;13.18;100.00;102428.19;10545202;28;20040;-66
2023/10/05 21:29:23;;;;;;;1999.90;999.90;;;;;;;13.69;100.00;102430.44;10544421;28;20044;-66
2023/10/05 21:34:26;;;;;;;1999.90;999.90;;;;;;;13.76;100.00;102416.06;10544287;28;20091;-66
2023/10/05 21:39:32;;;;;;;1999.90;999.90;;;;;;;13.99;100.00;102411.53;10544672;28;20048;-66
2023/10/05 21:44:35;;;;;;;1999.90;999.90;;;;;;;13.89;100.00;102416.38;10526973;28;20119;-67
2023/10/05 21:49:37;;;;;;;1999.90;999.90;;;;;;;13.79;100.00;102421.19;10526269;28;20131;-67
2023/10/05 21:54:39;;;;;;;1999.90;999.90;;;;;;;13.72;100.00;102410.09;10544086;28;20094;-67
2023/10/05 21:59:42;;;;;;;1999.90;999.90;;;;;;;13.68;100.00;102412.91;10543853;28;20048;-66
2023/10/05 22:04:44;;;;;;;1999.90;999.90;;;;;;;13.54;100.00;102416.16;10542964;28;20455;-66
2023/10/05 22:09:47;;;;;;;1999.90;999.90;;;;;;;13.70;100.00;102424.22;10525710;28;20131;-66
2023/10/05 22:14:49;;;;;;;1999.90;999.90;;;;;;;13.73;100.00;102421.47;10542434;28;20400;-66
2023/10/05 22:19:51;;;;;;;1999.90;999.90;;;;;;;13.81;100.00;102414.06;10542366;28;20063;-66
2023/10/05 22:24:55;;;;;;;1999.90;999.90;;;;;;;13.73;100.00;102409.16;10542725;28;20055;-67
2023/10/05 22:29:57;;;;;;;1999.90;999.90;;;;;;;13.60;100.00;102399.25;10542612;28;20086;-66
2023/10/05 22:35:00;;;;;;;1999.90;999.90;;;;;;;13.48;100.00;102393.63;10541776;28;20070;-66
2023/10/05 22:40:03;;;;;;;1999.90;999.90;;;;;;;13.52;100.00;102397.81;10523386;28;20097;-66